ADDS METAR Data INFO
IDs: Format: Raw Decoded Include TAF

Data at: 0703 UTC 19 Oct 2017

KINF 190655Z AUTO 36004KT 10SM CLR 20/20 A3011 RMK AO2
KINF 190635Z AUTO 01006KT 10SM CLR 20/20 A3011 RMK AO2
KINF 190615Z AUTO 01006KT 10SM CLR 20/20 A3011 RMK AO2
KINF 190555Z AUTO 01006KT 10SM CLR 20/20 A3012 RMK AO2
KINF 190535Z AUTO 01008KT 10SM CLR 20/20 A3013 RMK AO2
KINF 190515Z AUTO 01007KT 10SM CLR 21/20 A3013 RMK AO2
KINF 190455Z AUTO 01007KT 10SM CLR 21/20 A3014 RMK AO2
KINF 190435Z AUTO 02009KT 10SM CLR 21/20 A3014 RMK AO2
KINF 190415Z AUTO 02009KT 10SM CLR 21/20 A3015 RMK AO2
KINF 190355Z AUTO 02008KT 10SM CLR 21/20 A3015 RMK AO2
KINF 190335Z AUTO 02008KT 10SM CLR 21/20 A3016 RMK AO2
KINF 190315Z AUTO 02008KT 10SM CLR 21/20 A3016 RMK AO2
KINF 190255Z AUTO 03007KT 10SM CLR 21/20 A3016 RMK AO2
KINF 190235Z AUTO 02008KT 10SM CLR 21/20 A3016 RMK AO2
KINF 190215Z AUTO 03007KT 10SM CLR 22/20 A3015 RMK AO2
KINF 190155Z AUTO 02007KT 10SM CLR 22/20 A3015 RMK AO2
KINF 190135Z AUTO 03006KT 10SM CLR 22/20 A3015 RMK AO2
KINF 190115Z AUTO 04007KT 10SM CLR 22/20 A3015 RMK AO2
KINF 190055Z AUTO 04006KT 10SM CLR 22/19 A3014 RMK AO2
KINF 190035Z AUTO 04006KT 10SM CLR 22/19 A3014 RMK AO2
KINF 190015Z AUTO 04006KT 10SM CLR 23/19 A3013 RMK AO2
KINF 182355Z AUTO 04007KT 10SM CLR 23/19 A3013 RMK AO2
KINF 182335Z AUTO 04006KT 10SM CLR 23/18 A3012 RMK AO2
KINF 182315Z AUTO 05005KT 10SM CLR 24/18 A3012 RMK AO2
KINF 182255Z AUTO 05007KT 10SM CLR 25/17 A3011 RMK AO2
KINF 182235Z AUTO 06007KT 10SM CLR 25/17 A3011 RMK AO2
KINF 182215Z AUTO 05010G16KT 10SM CLR 26/16 A3011 RMK AO2
KINF 182155Z AUTO 05014G19KT 10SM CLR 26/16 A3011 RMK AO2
KINF 182135Z AUTO 04012G17KT 10SM CLR 27/18 A3010 RMK AO2
KINF 182115Z AUTO 05009G18KT 10SM CLR 27/18 A3010 RMK AO2
KINF 182055Z AUTO 06008G15KT 10SM CLR 27/18 A3010 RMK AO2
KINF 182035Z AUTO 05013G19KT 10SM SCT095 27/18 A3010 RMK AO2
KINF 182015Z AUTO 05009G19KT 10SM SCT095 27/18 A3010 RMK AO2
KINF 181955Z AUTO 05013G18KT 10SM SCT042 SCT050 SCT090 27/18 A3009 RMK AO2
KINF 181935Z AUTO 05013G18KT 10SM SCT042 SCT050 28/19 A3009 RMK AO2
KINF 181915Z AUTO 06009G16KT 10SM SCT040 SCT060 SCT090 27/19 A3010 RMK AO2
KINF 181855Z AUTO 07009G18KT 10SM SCT038 SCT046 BKN060 28/20 A3010 RMK AO2
KINF 181835Z AUTO 07010G14KT 10SM SCT036 BKN046 BKN060 28/20 A3010 RMK AO2
KINF 181815Z AUTO 06009G16KT 10SM SCT046 BKN060 27/21 A3011 RMK AO2
KINF 181755Z AUTO 07011G16KT 10SM SCT035 SCT043 BKN050 27/21 A3012 RMK AO2
KINF 181735Z AUTO 06011G15KT 10SM SCT029 BKN034 BKN040 27/21 A3012 RMK AO2
KINF 181715Z AUTO 04012G17KT 10SM BKN027 BKN033 OVC100 27/21 A3013 RMK AO2
KINF 181655Z AUTO 06010G15KT 040V110 10SM SCT024 BKN028 OVC070 27/21 A3014 RMK AO2
KINF 181635Z AUTO 05008G14KT 10SM BKN024 OVC028 26/22 A3014 RMK AO2
KINF 181615Z AUTO 05010KT 10SM BKN022 BKN028 OVC048 26/21 A3015 RMK AO2
KINF 181555Z AUTO 07007KT 040V100 10SM BKN022 BKN048 BKN050 25/22 A3016 RMK AO2
KINF 181535Z AUTO 06009KT 10SM SCT020 SCT050 25/21 A3016 RMK AO2
KINF 181515Z AUTO 05009KT 10SM SCT020 SCT036 BKN047 25/21 A3016 RMK AO2
KINF 181455Z AUTO 04010KT 10SM SCT018 SCT030 BKN038 25/21 A3016 RMK AO2
KINF 181435Z AUTO 04007KT 10SM SCT016 SCT029 BKN035 24/21 A3016 RMK AO2
KINF 181415Z AUTO 05007KT 10SM SCT016 23/21 A3016 RMK AO2
KINF 181355Z AUTO 03009KT 10SM CLR 22/20 A3015 RMK AO2
KINF 181335Z AUTO 03009KT 10SM SCT008 21/20 A3014 RMK AO2
KINF 181315Z AUTO 03006KT 10SM SCT008 21/20 A3014 RMK AO2
KINF 181255Z AUTO 02007KT 10SM SCT008 20/19 A3014 RMK AO2
KINF 181235Z AUTO 01007KT 10SM CLR 19/18 A3013 RMK AO2
KINF 181215Z AUTO 02006KT 10SM CLR 18/18 A3013 RMK AO2
KINF 181155Z AUTO 03008KT 10SM CLR 18/18 A3012 RMK AO2
KINF 181135Z AUTO 01007KT 10SM CLR 18/18 A3011 RMK AO2
KINF 181115Z AUTO 03009KT 10SM CLR 18/18 A3011 RMK AO2
KINF 181055Z AUTO 02008KT 10SM SCT022 19/18 A3010 RMK AO2
KINF 181035Z AUTO 02007KT 10SM BKN022 19/18 A3010 RMK AO2
KINF 181015Z AUTO 02006KT 10SM OVC022 20/18 A3009 RMK AO2
KINF 180955Z AUTO 01006KT 10SM OVC020 20/18 A3009 RMK AO2
KINF 180935Z AUTO 02007KT 10SM BKN014 OVC024 20/19 A3009 RMK AO2
KINF 180915Z AUTO 01005KT 10SM OVC012 20/18 A3009 RMK AO2
KINF 180855Z AUTO 02006KT 10SM OVC014 19/18 A3009 RMK AO2
KINF 180835Z AUTO 02007KT 10SM BKN016 18/18 A3009 RMK AO2
KINF 180815Z AUTO 36007KT 10SM SCT018 18/18 A3009 RMK AO2
KINF 180755Z AUTO 01007KT 10SM SCT018 BKN028 18/18 A3009 RMK AO2
KINF 180655Z AUTO 01007KT 10SM BKN024 OVC030 18/17 A3011 RMK AO2 LTG DSNT SW
KINF 180635Z AUTO 01005KT 10SM OVC031 18/17 A3011 RMK AO2
KINF 180615Z AUTO 01006KT 10SM OVC031 18/17 A3011 RMK AO2
KINF 180555Z AUTO 02006KT 10SM OVC031 18/17 A3012 RMK AO2
KINF 180535Z AUTO 01006KT 10SM BKN029 18/17 A3012 RMK AO2
KINF 180515Z AUTO 01006KT 10SM SCT031 18/17 A3012 RMK AO2
KINF 180455Z AUTO 36006KT 10SM SCT031 18/17 A3012 RMK AO2
KINF 180435Z AUTO 01007KT 10SM CLR 18/17 A3012 RMK AO2
KINF 180415Z AUTO 01007KT 10SM CLR 18/17 A3013 RMK AO2
KINF 180355Z AUTO 01009KT 10SM CLR 18/17 A3014 RMK AO2
KINF 180335Z AUTO 36008KT 10SM SCT015 BKN025 BKN030 18/17 A3013 RMK AO2 LTG DSNT SW
KINF 180315Z AUTO 02009KT 10SM BKN017 OVC025 19/18 A3014 RMK AO2
KINF 180255Z AUTO 03012G16KT 10SM OVC017 20/18 A3014 RMK AO2
KINF 180235Z AUTO 02011G16KT 10SM OVC017 20/18 A3014 RMK AO2
KINF 180215Z AUTO 03009KT 10SM OVC017 21/18 A3013 RMK AO2
KINF 180155Z AUTO 02011G17KT 10SM OVC017 21/18 A3013 RMK AO2
KINF 180135Z AUTO 02011G20KT 10SM OVC017 21/18 A3013 RMK AO2
KINF 180115Z AUTO 04012G16KT 10SM OVC017 21/18 A3013 RMK AO2
KINF 180055Z AUTO 02015G19KT 10SM OVC017 21/19 A3012 RMK AO2
KINF 180035Z AUTO 02014G17KT 10SM OVC017 21/19 A3011 RMK AO2
KINF 180015Z AUTO 02009G19KT 10SM OVC019 22/19 A3011 RMK AO2
KINF 172355Z AUTO 03013G18KT 10SM OVC019 22/20 A3010 RMK AO2
KINF 172335Z AUTO 04010G16KT 10SM OVC021 22/20 A3010 RMK AO2
KINF 172315Z AUTO 02011KT 10SM OVC021 22/20 A3009 RMK AO2
KINF 172255Z AUTO 03011G16KT 10SM OVC021 22/20 A3008 RMK AO2
KINF 172235Z AUTO 02009KT 10SM OVC023 23/20 A3008 RMK AO2
KINF 172215Z AUTO 03009G14KT 10SM OVC025 23/20 A3007 RMK AO2
KINF 172155Z AUTO 04011G17KT 10SM OVC025 23/20 A3007 RMK AO2
KINF 172135Z AUTO 03010G16KT 10SM OVC025 23/20 A3007 RMK AO2
KINF 172115Z AUTO 03015G18KT 10SM OVC025 23/20 A3006 RMK AO2
KINF 172055Z AUTO 02009G17KT 10SM OVC023 24/21 A3006 RMK AO2
KINF 172035Z AUTO 03011G15KT 10SM BKN025 BKN029 OVC034 24/21 A3006 RMK AO2
KINF 172015Z AUTO 03012KT 10SM BKN025 OVC034 25/21 A3007 RMK AO2
KINF 171955Z AUTO 02009KT 10SM OVC023 25/21 A3007 RMK AO2
KINF 171935Z AUTO 03010G16KT 10SM OVC023 24/21 A3007 RMK AO2
KINF 171915Z AUTO 04008KT 10SM OVC025 25/21 A3007 RMK AO2